sensor_id;sensor_type;location;lat;lon;timestamp;P1;durP1;ratioP1;P2;durP2;ratioP2
75218;SDS011;63801;49.414;19.474;2024-03-22T00:01:27;41.67;;;19.25;;
75218;SDS011;63801;49.414;19.474;2024-03-22T00:03:27;37.30;;;16.00;;
75218;SDS011;63801;49.414;19.474;2024-03-22T00:05:27;32.63;;;14.05;;
75218;SDS011;63801;49.414;19.474;2024-03-22T00:07:28;30.10;;;13.95;;
75218;SDS011;63801;49.414;19.474;2024-03-22T00:09:28;32.53;;;12.50;;
75218;SDS011;63801;49.414;19.474;2024-03-22T00:11:28;24.10;;;10.73;;
75218;SDS011;63801;49.414;19.474;2024-03-22T00:13:29;26.95;;;11.45;;
75218;SDS011;63801;49.414;19.474;2024-03-22T00:15:29;25.83;;;11.10;;
75218;SDS011;63801;49.414;19.474;2024-03-22T00:17:29;29.83;;;14.07;;
75218;SDS011;63801;49.414;19.474;2024-03-22T00:19:30;32.33;;;13.75;;
75218;SDS011;63801;49.414;19.474;2024-03-22T00:21:31;43.58;;;19.60;;
75218;SDS011;63801;49.414;19.474;2024-03-22T00:23:31;58.03;;;25.92;;
75218;SDS011;63801;49.414;19.474;2024-03-22T00:25:31;67.50;;;27.98;;
75218;SDS011;63801;49.414;19.474;2024-03-22T00:27:32;61.97;;;27.40;;
75218;SDS011;63801;49.414;19.474;2024-03-22T00:29:32;38.95;;;17.23;;
75218;SDS011;63801;49.414;19.474;2024-03-22T00:31:33;28.02;;;10.73;;
75218;SDS011;63801;49.414;19.474;2024-03-22T00:33:33;27.83;;;11.18;;
75218;SDS011;63801;49.414;19.474;2024-03-22T00:35:33;23.83;;;9.68;;
75218;SDS011;63801;49.414;19.474;2024-03-22T00:37:34;24.30;;;10.93;;
75218;SDS011;63801;49.414;19.474;2024-03-22T00:39:34;21.23;;;10.30;;
75218;SDS011;63801;49.414;19.474;2024-03-22T00:41:35;22.08;;;9.25;;
75218;SDS011;63801;49.414;19.474;2024-03-22T00:43:36;20.80;;;8.48;;
75218;SDS011;63801;49.414;19.474;2024-03-22T00:45:36;18.42;;;7.63;;
75218;SDS011;63801;49.414;19.474;2024-03-22T00:47:36;21.90;;;8.00;;
75218;SDS011;63801;49.414;19.474;2024-03-22T00:49:36;25.52;;;9.85;;
75218;SDS011;63801;49.414;19.474;2024-03-22T00:51:37;17.38;;;8.20;;
75218;SDS011;63801;49.414;19.474;2024-03-22T00:53:37;20.88;;;10.50;;
75218;SDS011;63801;49.414;19.474;2024-03-22T00:55:37;17.17;;;8.43;;
75218;SDS011;63801;49.414;19.474;2024-03-22T00:57:38;24.85;;;10.77;;
75218;SDS011;63801;49.414;19.474;2024-03-22T00:59:38;22.27;;;10.07;;
75218;SDS011;63801;49.414;19.474;2024-03-22T01:01:39;38.05;;;16.40;;
75218;SDS011;63801;49.414;19.474;2024-03-22T01:03:39;39.85;;;16.77;;
75218;SDS011;63801;49.414;19.474;2024-03-22T01:05:39;44.65;;;20.10;;
75218;SDS011;63801;49.414;19.474;2024-03-22T01:07:42;60.42;;;21.70;;
75218;SDS011;63801;49.414;19.474;2024-03-22T01:09:42;36.63;;;14.73;;
75218;SDS011;63801;49.414;19.474;2024-03-22T01:11:44;78.13;;;28.15;;
75218;SDS011;63801;49.414;19.474;2024-03-22T01:13:44;63.05;;;26.23;;
75218;SDS011;63801;49.414;19.474;2024-03-22T01:15:44;52.15;;;23.27;;
75218;SDS011;63801;49.414;19.474;2024-03-22T01:17:46;46.63;;;20.23;;
75218;SDS011;63801;49.414;19.474;2024-03-22T01:19:46;22.98;;;11.27;;
75218;SDS011;63801;49.414;19.474;2024-03-22T01:21:46;22.85;;;9.45;;
75218;SDS011;63801;49.414;19.474;2024-03-22T01:23:47;17.73;;;8.52;;
75218;SDS011;63801;49.414;19.474;2024-03-22T01:25:47;17.65;;;8.85;;
75218;SDS011;63801;49.414;19.474;2024-03-22T01:27:47;19.02;;;9.05;;
75218;SDS011;63801;49.414;19.474;2024-03-22T01:29:47;19.98;;;9.90;;
75218;SDS011;63801;49.414;19.474;2024-03-22T01:31:48;21.88;;;10.02;;
75218;SDS011;63801;49.414;19.474;2024-03-22T01:33:48;19.08;;;9.75;;
75218;SDS011;63801;49.414;19.474;2024-03-22T01:35:49;22.92;;;10.80;;
75218;SDS011;63801;49.414;19.474;2024-03-22T01:37:49;22.88;;;10.48;;
75218;SDS011;63801;49.414;19.474;2024-03-22T01:39:49;21.67;;;10.88;;
75218;SDS011;63801;49.414;19.474;2024-03-22T01:41:50;25.00;;;10.18;;
75218;SDS011;63801;49.414;19.474;2024-03-22T01:43:51;24.27;;;10.57;;
75218;SDS011;63801;49.414;19.474;2024-03-22T01:45:51;21.73;;;10.13;;
75218;SDS011;63801;49.414;19.474;2024-03-22T01:47:51;21.13;;;9.50;;
75218;SDS011;63801;49.414;19.474;2024-03-22T01:49:57;20.13;;;8.98;;
75218;SDS011;63801;49.414;19.474;2024-03-22T01:51:58;21.48;;;9.25;;
75218;SDS011;63801;49.414;19.474;2024-03-22T01:53:59;23.25;;;9.65;;
75218;SDS011;63801;49.414;19.474;2024-03-22T01:56:02;23.80;;;9.93;;
75218;SDS011;63801;49.414;19.474;2024-03-22T01:58:02;20.95;;;10.52;;
75218;SDS011;63801;49.414;19.474;2024-03-22T02:00:04;22.15;;;10.55;;
75218;SDS011;63801;49.414;19.474;2024-03-22T02:02:04;39.05;;;17.83;;
75218;SDS011;63801;49.414;19.474;2024-03-22T02:04:05;43.95;;;20.95;;
75218;SDS011;63801;49.414;19.474;2024-03-22T02:06:06;49.92;;;22.27;;
75218;SDS011;63801;49.414;19.474;2024-03-22T02:08:06;51.67;;;23.80;;
75218;SDS011;63801;49.414;19.474;2024-03-22T02:10:07;48.50;;;23.48;;
75218;SDS011;63801;49.414;19.474;2024-03-22T02:12:10;46.65;;;21.55;;
75218;SDS011;63801;49.414;19.474;2024-03-22T02:14:11;51.03;;;23.10;;
75218;SDS011;63801;49.414;19.474;2024-03-22T02:16:11;42.03;;;20.08;;
75218;SDS011;63801;49.414;19.474;2024-03-22T02:18:12;37.05;;;17.23;;
75218;SDS011;63801;49.414;19.474;2024-03-22T02:20:12;39.05;;;18.52;;
75218;SDS011;63801;49.414;19.474;2024-03-22T02:22:13;43.63;;;17.63;;
75218;SDS011;63801;49.414;19.474;2024-03-22T02:24:13;38.63;;;17.52;;
75218;SDS011;63801;49.414;19.474;2024-03-22T02:26:13;40.55;;;18.05;;
75218;SDS011;63801;49.414;19.474;2024-03-22T02:28:14;42.60;;;17.65;;
75218;SDS011;63801;49.414;19.474;2024-03-22T02:30:14;37.33;;;17.33;;
75218;SDS011;63801;49.414;19.474;2024-03-22T02:32:14;44.60;;;19.98;;
75218;SDS011;63801;49.414;19.474;2024-03-22T02:34:14;50.13;;;24.25;;
75218;SDS011;63801;49.414;19.474;2024-03-22T02:36:15;48.33;;;23.58;;
75218;SDS011;63801;49.414;19.474;2024-03-22T02:38:15;46.40;;;22.15;;
75218;SDS011;63801;49.414;19.474;2024-03-22T02:40:16;39.83;;;18.80;;
75218;SDS011;63801;49.414;19.474;2024-03-22T02:42:17;41.90;;;20.48;;
75218;SDS011;63801;49.414;19.474;2024-03-22T02:44:17;48.55;;;21.42;;
75218;SDS011;63801;49.414;19.474;2024-03-22T02:46:17;55.05;;;27.23;;
75218;SDS011;63801;49.414;19.474;2024-03-22T02:48:17;55.55;;;26.20;;
75218;SDS011;63801;49.414;19.474;2024-03-22T02:50:18;51.10;;;25.85;;
75218;SDS011;63801;49.414;19.474;2024-03-22T02:52:18;52.42;;;25.92;;
75218;SDS011;63801;49.414;19.474;2024-03-22T02:54:18;54.08;;;25.90;;
75218;SDS011;63801;49.414;19.474;2024-03-22T02:56:19;56.33;;;25.25;;
75218;SDS011;63801;49.414;19.474;2024-03-22T02:58:20;54.80;;;23.45;;
75218;SDS011;63801;49.414;19.474;2024-03-22T03:00:20;52.63;;;24.60;;
75218;SDS011;63801;49.414;19.474;2024-03-22T03:02:20;73.32;;;34.92;;
75218;SDS011;63801;49.414;19.474;2024-03-22T03:04:21;65.18;;;31.58;;
75218;SDS011;63801;49.414;19.474;2024-03-22T03:06:21;68.90;;;30.60;;
75218;SDS011;63801;49.414;19.474;2024-03-22T03:08:21;59.95;;;27.45;;
75218;SDS011;63801;49.414;19.474;2024-03-22T03:10:22;66.70;;;29.30;;
75218;SDS011;63801;49.414;19.474;2024-03-22T03:12:22;54.78;;;24.73;;
75218;SDS011;63801;49.414;19.474;2024-03-22T03:14:22;51.90;;;23.35;;
75218;SDS011;63801;49.414;19.474;2024-03-22T03:16:23;51.25;;;23.42;;
75218;SDS011;63801;49.414;19.474;2024-03-22T03:18:23;53.53;;;23.38;;
75218;SDS011;63801;49.414;19.474;2024-03-22T03:20:24;53.58;;;23.38;;
75218;SDS011;63801;49.414;19.474;2024-03-22T03:22:25;61.17;;;26.70;;
75218;SDS011;63801;49.414;19.474;2024-03-22T03:24:26;51.95;;;21.90;;
75218;SDS011;63801;49.414;19.474;2024-03-22T03:26:26;63.85;;;28.88;;
75218;SDS011;63801;49.414;19.474;2024-03-22T03:28:26;53.75;;;24.40;;
75218;SDS011;63801;49.414;19.474;2024-03-22T03:30:27;47.17;;;21.50;;
75218;SDS011;63801;49.414;19.474;2024-03-22T03:32:28;49.20;;;23.13;;
75218;SDS011;63801;49.414;19.474;2024-03-22T03:34:28;54.67;;;25.48;;
75218;SDS011;63801;49.414;19.474;2024-03-22T03:36:28;47.90;;;22.77;;
75218;SDS011;63801;49.414;19.474;2024-03-22T03:38:29;52.03;;;23.05;;
75218;SDS011;63801;49.414;19.474;2024-03-22T03:40:29;48.58;;;22.92;;
75218;SDS011;63801;49.414;19.474;2024-03-22T03:42:29;47.20;;;21.50;;
75218;SDS011;63801;49.414;19.474;2024-03-22T03:44:29;51.70;;;23.45;;
75218;SDS011;63801;49.414;19.474;2024-03-22T03:46:30;48.80;;;21.77;;
75218;SDS011;63801;49.414;19.474;2024-03-22T03:48:31;52.67;;;22.73;;
75218;SDS011;63801;49.414;19.474;2024-03-22T03:50:31;52.47;;;23.17;;
75218;SDS011;63801;49.414;19.474;2024-03-22T03:52:32;51.88;;;23.65;;
75218;SDS011;63801;49.414;19.474;2024-03-22T03:54:32;56.22;;;24.30;;
75218;SDS011;63801;49.414;19.474;2024-03-22T03:56:32;55.42;;;24.63;;
75218;SDS011;63801;49.414;19.474;2024-03-22T03:58:32;54.15;;;22.67;;
75218;SDS011;63801;49.414;19.474;2024-03-22T04:00:33;54.88;;;25.58;;
75218;SDS011;63801;49.414;19.474;2024-03-22T04:02:33;56.08;;;25.55;;
75218;SDS011;63801;49.414;19.474;2024-03-22T04:04:33;63.60;;;25.83;;
75218;SDS011;63801;49.414;19.474;2024-03-22T04:06:34;61.45;;;25.98;;
75218;SDS011;63801;49.414;19.474;2024-03-22T04:08:34;70.60;;;27.77;;
75218;SDS011;63801;49.414;19.474;2024-03-22T04:10:34;61.00;;;27.88;;
75218;SDS011;63801;49.414;19.474;2024-03-22T04:12:35;70.15;;;28.17;;
75218;SDS011;63801;49.414;19.474;2024-03-22T04:14:35;65.10;;;29.02;;
75218;SDS011;63801;49.414;19.474;2024-03-22T04:16:35;75.18;;;31.95;;
75218;SDS011;63801;49.414;19.474;2024-03-22T04:18:36;86.32;;;35.20;;
75218;SDS011;63801;49.414;19.474;2024-03-22T04:20:36;79.90;;;35.35;;
75218;SDS011;63801;49.414;19.474;2024-03-22T04:22:37;67.95;;;31.25;;
75218;SDS011;63801;49.414;19.474;2024-03-22T04:24:37;65.85;;;29.88;;
75218;SDS011;63801;49.414;19.474;2024-03-22T04:26:37;60.63;;;27.27;;
75218;SDS011;63801;49.414;19.474;2024-03-22T04:28:38;60.90;;;27.73;;
75218;SDS011;63801;49.414;19.474;2024-03-22T04:30:38;65.82;;;29.60;;
75218;SDS011;63801;49.414;19.474;2024-03-22T04:32:38;67.78;;;28.13;;
75218;SDS011;63801;49.414;19.474;2024-03-22T04:34:41;53.33;;;26.77;;
75218;SDS011;63801;49.414;19.474;2024-03-22T04:36:42;69.28;;;30.05;;
75218;SDS011;63801;49.414;19.474;2024-03-22T04:38:43;68.63;;;28.13;;
75218;SDS011;63801;49.414;19.474;2024-03-22T04:40:43;69.80;;;30.77;;
75218;SDS011;63801;49.414;19.474;2024-03-22T04:42:44;63.47;;;29.48;;
75218;SDS011;63801;49.414;19.474;2024-03-22T04:44:44;66.95;;;28.52;;
75218;SDS011;63801;49.414;19.474;2024-03-22T04:46:44;68.50;;;29.00;;
75218;SDS011;63801;49.414;19.474;2024-03-22T04:48:45;68.72;;;29.10;;
75218;SDS011;63801;49.414;19.474;2024-03-22T04:50:45;67.45;;;29.35;;
75218;SDS011;63801;49.414;19.474;2024-03-22T04:52:45;63.53;;;29.20;;
75218;SDS011;63801;49.414;19.474;2024-03-22T04:54:46;68.78;;;30.52;;
75218;SDS011;63801;49.414;19.474;2024-03-22T04:56:47;65.68;;;30.38;;
75218;SDS011;63801;49.414;19.474;2024-03-22T04:58:47;76.28;;;35.20;;
75218;SDS011;63801;49.414;19.474;2024-03-22T05:00:48;91.38;;;41.05;;
75218;SDS011;63801;49.414;19.474;2024-03-22T05:02:49;66.25;;;31.30;;
75218;SDS011;63801;49.414;19.474;2024-03-22T05:04:50;73.65;;;31.63;;
75218;SDS011;63801;49.414;19.474;2024-03-22T05:06:50;99.70;;;48.63;;
75218;SDS011;63801;49.414;19.474;2024-03-22T05:08:50;88.38;;;38.90;;
75218;SDS011;63801;49.414;19.474;2024-03-22T05:10:50;93.10;;;43.78;;
75218;SDS011;63801;49.414;19.474;2024-03-22T05:12:52;94.93;;;45.10;;
75218;SDS011;63801;49.414;19.474;2024-03-22T05:14:53;99.63;;;47.65;;
75218;SDS011;63801;49.414;19.474;2024-03-22T05:16:53;95.82;;;47.22;;
75218;SDS011;63801;49.414;19.474;2024-03-22T05:18:54;105.38;;;48.65;;
75218;SDS011;63801;49.414;19.474;2024-03-22T05:20:54;96.72;;;43.08;;
75218;SDS011;63801;49.414;19.474;2024-03-22T05:22:54;89.75;;;41.30;;
75218;SDS011;63801;49.414;19.474;2024-03-22T05:24:55;87.88;;;37.58;;
75218;SDS011;63801;49.414;19.474;2024-03-22T05:26:55;87.63;;;36.30;;
75218;SDS011;63801;49.414;19.474;2024-03-22T05:28:55;82.60;;;35.42;;
75218;SDS011;63801;49.414;19.474;2024-03-22T05:30:56;85.03;;;34.80;;
75218;SDS011;63801;49.414;19.474;2024-03-22T05:32:56;85.13;;;35.95;;
75218;SDS011;63801;49.414;19.474;2024-03-22T05:34:57;75.35;;;33.78;;
75218;SDS011;63801;49.414;19.474;2024-03-22T05:36:57;77.43;;;33.75;;
75218;SDS011;63801;49.414;19.474;2024-03-22T05:38:58;75.63;;;32.10;;
75218;SDS011;63801;49.414;19.474;2024-03-22T05:41:03;70.85;;;32.22;;
75218;SDS011;63801;49.414;19.474;2024-03-22T05:43:04;70.85;;;32.50;;
75218;SDS011;63801;49.414;19.474;2024-03-22T05:45:05;77.05;;;33.05;;
75218;SDS011;63801;49.414;19.474;2024-03-22T05:47:06;69.47;;;32.20;;
75218;SDS011;63801;49.414;19.474;2024-03-22T05:49:06;68.07;;;32.47;;
75218;SDS011;63801;49.414;19.474;2024-03-22T05:51:07;74.07;;;31.05;;
75218;SDS011;63801;49.414;19.474;2024-03-22T05:53:08;86.07;;;35.08;;
75218;SDS011;63801;49.414;19.474;2024-03-22T05:55:08;90.13;;;34.55;;
75218;SDS011;63801;49.414;19.474;2024-03-22T05:57:08;78.35;;;32.45;;
75218;SDS011;63801;49.414;19.474;2024-03-22T05:59:09;128.25;;;45.33;;
75218;SDS011;63801;49.414;19.474;2024-03-22T06:01:10;78.00;;;34.05;;
75218;SDS011;63801;49.414;19.474;2024-03-22T06:03:10;82.95;;;34.72;;
75218;SDS011;63801;49.414;19.474;2024-03-22T06:05:10;83.97;;;36.17;;
75218;SDS011;63801;49.414;19.474;2024-03-22T06:07:11;81.30;;;34.13;;
75218;SDS011;63801;49.414;19.474;2024-03-22T06:09:12;75.28;;;33.78;;
75218;SDS011;63801;49.414;19.474;2024-03-22T06:11:13;82.35;;;34.45;;
75218;SDS011;63801;49.414;19.474;2024-03-22T06:13:13;81.40;;;35.58;;
75218;SDS011;63801;49.414;19.474;2024-03-22T06:15:13;83.35;;;35.45;;
75218;SDS011;63801;49.414;19.474;2024-03-22T06:17:14;77.45;;;34.30;;
75218;SDS011;63801;49.414;19.474;2024-03-22T06:19:15;82.00;;;35.20;;
75218;SDS011;63801;49.414;19.474;2024-03-22T06:21:16;85.05;;;37.58;;
75218;SDS011;63801;49.414;19.474;2024-03-22T06:23:21;73.32;;;33.33;;
75218;SDS011;63801;49.414;19.474;2024-03-22T06:25:22;71.47;;;31.95;;
75218;SDS011;63801;49.414;19.474;2024-03-22T06:27:22;80.65;;;33.90;;
75218;SDS011;63801;49.414;19.474;2024-03-22T06:29:23;71.38;;;31.38;;
75218;SDS011;63801;49.414;19.474;2024-03-22T06:31:23;79.55;;;33.65;;
75218;SDS011;63801;49.414;19.474;2024-03-22T06:33:23;81.45;;;34.05;;
75218;SDS011;63801;49.414;19.474;2024-03-22T06:35:24;77.60;;;33.35;;
75218;SDS011;63801;49.414;19.474;2024-03-22T06:37:24;72.85;;;33.35;;
75218;SDS011;63801;49.414;19.474;2024-03-22T06:39:24;73.60;;;32.35;;
75218;SDS011;63801;49.414;19.474;2024-03-22T06:41:25;89.78;;;37.03;;
75218;SDS011;63801;49.414;19.474;2024-03-22T06:43:26;97.05;;;40.15;;
75218;SDS011;63801;49.414;19.474;2024-03-22T06:45:26;92.60;;;37.50;;
75218;SDS011;63801;49.414;19.474;2024-03-22T06:47:26;88.95;;;37.42;;
75218;SDS011;63801;49.414;19.474;2024-03-22T06:49:27;85.43;;;37.55;;
75218;SDS011;63801;49.414;19.474;2024-03-22T06:51:27;89.10;;;40.35;;
75218;SDS011;63801;49.414;19.474;2024-03-22T06:53:27;90.93;;;41.22;;
75218;SDS011;63801;49.414;19.474;2024-03-22T06:55:28;92.88;;;43.33;;
75218;SDS011;63801;49.414;19.474;2024-03-22T06:57:28;144.82;;;62.38;;
75218;SDS011;63801;49.414;19.474;2024-03-22T06:59:28;143.38;;;66.28;;
75218;SDS011;63801;49.414;19.474;2024-03-22T07:01:29;113.13;;;49.00;;
75218;SDS011;63801;49.414;19.474;2024-03-22T07:03:29;103.43;;;44.88;;
75218;SDS011;63801;49.414;19.474;2024-03-22T07:05:30;96.40;;;40.75;;
75218;SDS011;63801;49.414;19.474;2024-03-22T07:07:30;93.88;;;41.38;;
75218;SDS011;63801;49.414;19.474;2024-03-22T07:09:32;87.32;;;39.45;;
75218;SDS011;63801;49.414;19.474;2024-03-22T07:11:33;82.03;;;37.78;;
75218;SDS011;63801;49.414;19.474;2024-03-22T07:13:34;73.75;;;31.67;;
75218;SDS011;63801;49.414;19.474;2024-03-22T07:15:34;71.55;;;30.42;;
75218;SDS011;63801;49.414;19.474;2024-03-22T07:17:35;70.35;;;30.67;;
75218;SDS011;63801;49.414;19.474;2024-03-22T07:19:35;63.53;;;30.05;;
75218;SDS011;63801;49.414;19.474;2024-03-22T07:21:35;62.70;;;29.55;;
75218;SDS011;63801;49.414;19.474;2024-03-22T07:23:36;62.25;;;29.42;;
75218;SDS011;63801;49.414;19.474;2024-03-22T07:25:36;62.60;;;28.55;;
75218;SDS011;63801;49.414;19.474;2024-03-22T07:27:36;61.15;;;27.40;;
75218;SDS011;63801;49.414;19.474;2024-03-22T07:29:37;64.20;;;28.13;;
75218;SDS011;63801;49.414;19.474;2024-03-22T07:31:37;62.70;;;28.35;;
75218;SDS011;63801;49.414;19.474;2024-03-22T07:33:39;67.85;;;29.65;;
75218;SDS011;63801;49.414;19.474;2024-03-22T07:35:39;60.78;;;27.95;;
75218;SDS011;63801;49.414;19.474;2024-03-22T07:37:40;81.60;;;35.50;;
75218;SDS011;63801;49.414;19.474;2024-03-22T07:39:40;91.80;;;40.03;;
75218;SDS011;63801;49.414;19.474;2024-03-22T07:41:40;94.93;;;40.90;;
75218;SDS011;63801;49.414;19.474;2024-03-22T07:43:41;97.90;;;42.38;;
75218;SDS011;63801;49.414;19.474;2024-03-22T07:45:41;90.10;;;39.50;;
75218;SDS011;63801;49.414;19.474;2024-03-22T07:47:41;93.68;;;41.85;;
75218;SDS011;63801;49.414;19.474;2024-03-22T07:49:43;97.82;;;42.67;;
75218;SDS011;63801;49.414;19.474;2024-03-22T07:51:43;87.85;;;41.03;;
75218;SDS011;63801;49.414;19.474;2024-03-22T07:53:44;94.03;;;40.17;;
75218;SDS011;63801;49.414;19.474;2024-03-22T07:55:44;88.57;;;39.58;;
75218;SDS011;63801;49.414;19.474;2024-03-22T07:57:45;84.30;;;37.75;;
75218;SDS011;63801;49.414;19.474;2024-03-22T07:59:45;78.82;;;36.40;;
75218;SDS011;63801;49.414;19.474;2024-03-22T08:01:46;80.65;;;36.78;;
75218;SDS011;63801;49.414;19.474;2024-03-22T08:03:47;123.97;;;57.35;;
75218;SDS011;63801;49.414;19.474;2024-03-22T08:05:47;86.32;;;38.42;;
75218;SDS011;63801;49.414;19.474;2024-03-22T08:07:47;82.97;;;38.22;;
75218;SDS011;63801;49.414;19.474;2024-03-22T08:09:48;88.63;;;40.50;;
75218;SDS011;63801;49.414;19.474;2024-03-22T08:11:48;80.90;;;36.67;;
75218;SDS011;63801;49.414;19.474;2024-03-22T08:13:48;80.30;;;36.47;;
75218;SDS011;63801;49.414;19.474;2024-03-22T08:15:49;79.07;;;37.25;;
75218;SDS011;63801;49.414;19.474;2024-03-22T08:17:49;79.63;;;36.53;;
75218;SDS011;63801;49.414;19.474;2024-03-22T08:19:49;78.60;;;37.70;;
75218;SDS011;63801;49.414;19.474;2024-03-22T08:21:50;87.03;;;39.03;;
75218;SDS011;63801;49.414;19.474;2024-03-22T08:23:50;80.45;;;38.20;;
75218;SDS011;63801;49.414;19.474;2024-03-22T08:25:51;68.53;;;32.60;;
75218;SDS011;63801;49.414;19.474;2024-03-22T08:27:52;61.92;;;31.08;;
75218;SDS011;63801;49.414;19.474;2024-03-22T08:29:55;67.45;;;32.70;;
75218;SDS011;63801;49.414;19.474;2024-03-22T08:31:55;62.25;;;31.73;;
75218;SDS011;63801;49.414;19.474;2024-03-22T08:33:55;64.05;;;30.70;;
75218;SDS011;63801;49.414;19.474;2024-03-22T08:35:56;57.75;;;29.58;;
75218;SDS011;63801;49.414;19.474;2024-03-22T08:37:56;60.60;;;29.10;;
75218;SDS011;63801;49.414;19.474;2024-03-22T08:39:57;62.75;;;30.55;;
75218;SDS011;63801;49.414;19.474;2024-03-22T08:41:57;60.10;;;28.75;;
75218;SDS011;63801;49.414;19.474;2024-03-22T08:43:57;64.18;;;29.75;;
75218;SDS011;63801;49.414;19.474;2024-03-22T08:45:58;57.08;;;28.55;;
75218;SDS011;63801;49.414;19.474;2024-03-22T08:47:58;55.10;;;25.60;;
75218;SDS011;63801;49.414;19.474;2024-03-22T08:49:59;61.28;;;27.95;;
75218;SDS011;63801;49.414;19.474;2024-03-22T08:52:00;47.33;;;23.45;;
75218;SDS011;63801;49.414;19.474;2024-03-22T08:54:00;51.13;;;25.38;;
75218;SDS011;63801;49.414;19.474;2024-03-22T08:56:00;57.30;;;25.77;;
75218;SDS011;63801;49.414;19.474;2024-03-22T08:58:01;59.78;;;26.95;;
75218;SDS011;63801;49.414;19.474;2024-03-22T09:00:01;51.22;;;24.88;;
75218;SDS011;63801;49.414;19.474;2024-03-22T09:02:02;54.90;;;25.63;;
75218;SDS011;63801;49.414;19.474;2024-03-22T09:04:02;49.88;;;24.55;;
75218;SDS011;63801;49.414;19.474;2024-03-22T09:06:03;56.65;;;25.55;;
75218;SDS011;63801;49.414;19.474;2024-03-22T09:08:04;52.58;;;24.38;;
75218;SDS011;63801;49.414;19.474;2024-03-22T09:10:05;61.97;;;25.77;;
75218;SDS011;63801;49.414;19.474;2024-03-22T09:12:06;51.90;;;24.48;;
75218;SDS011;63801;49.414;19.474;2024-03-22T09:14:07;54.22;;;24.67;;
75218;SDS011;63801;49.414;19.474;2024-03-22T09:16:08;44.67;;;22.60;;
75218;SDS011;63801;49.414;19.474;2024-03-22T09:18:08;49.90;;;23.25;;
75218;SDS011;63801;49.414;19.474;2024-03-22T09:20:09;47.78;;;23.60;;
75218;SDS011;63801;49.414;19.474;2024-03-22T09:22:09;47.92;;;22.80;;
75218;SDS011;63801;49.414;19.474;2024-03-22T09:24:10;52.83;;;24.10;;
75218;SDS011;63801;49.414;19.474;2024-03-22T09:26:10;48.90;;;21.98;;
75218;SDS011;63801;49.414;19.474;2024-03-22T09:28:10;45.80;;;21.73;;
75218;SDS011;63801;49.414;19.474;2024-03-22T09:30:11;39.78;;;20.85;;
75218;SDS011;63801;49.414;19.474;2024-03-22T09:32:12;39.70;;;20.23;;
75218;SDS011;63801;49.414;19.474;2024-03-22T09:34:12;45.20;;;21.63;;
75218;SDS011;63801;49.414;19.474;2024-03-22T09:36:13;44.47;;;22.27;;
75218;SDS011;63801;49.414;19.474;2024-03-22T09:38:13;42.35;;;20.80;;
75218;SDS011;63801;49.414;19.474;2024-03-22T09:40:15;45.22;;;21.50;;
75218;SDS011;63801;49.414;19.474;2024-03-22T09:42:16;41.88;;;20.73;;
75218;SDS011;63801;49.414;19.474;2024-03-22T09:44:20;40.80;;;20.45;;
75218;SDS011;63801;49.414;19.474;2024-03-22T09:46:21;41.53;;;21.25;;
75218;SDS011;63801;49.414;19.474;2024-03-22T09:48:22;38.25;;;20.23;;
75218;SDS011;63801;49.414;19.474;2024-03-22T09:50:23;43.85;;;20.38;;
75218;SDS011;63801;49.414;19.474;2024-03-22T09:52:24;39.03;;;19.73;;
75218;SDS011;63801;49.414;19.474;2024-03-22T09:54:25;33.75;;;16.95;;
75218;SDS011;63801;49.414;19.474;2024-03-22T09:56:25;34.70;;;16.80;;
75218;SDS011;63801;49.414;19.474;2024-03-22T10:00:28;31.48;;;15.98;;
75218;SDS011;63801;49.414;19.474;2024-03-22T10:02:31;40.10;;;19.27;;
75218;SDS011;63801;49.414;19.474;2024-03-22T10:04:32;44.20;;;19.10;;
75218;SDS011;63801;49.414;19.474;2024-03-22T10:06:32;34.33;;;16.33;;
75218;SDS011;63801;49.414;19.474;2024-03-22T10:08:33;39.00;;;18.58;;
75218;SDS011;63801;49.414;19.474;2024-03-22T10:10:33;30.70;;;15.20;;
75218;SDS011;63801;49.414;19.474;2024-03-22T10:12:34;28.30;;;14.98;;
75218;SDS011;63801;49.414;19.474;2024-03-22T10:14:34;29.77;;;15.50;;
75218;SDS011;63801;49.414;19.474;2024-03-22T10:16:36;26.45;;;13.98;;
75218;SDS011;63801;49.414;19.474;2024-03-22T10:18:37;27.92;;;14.45;;
75218;SDS011;63801;49.414;19.474;2024-03-22T10:20:37;25.58;;;13.60;;
75218;SDS011;63801;49.414;19.474;2024-03-22T10:22:42;27.65;;;14.20;;
75218;SDS011;63801;49.414;19.474;2024-03-22T10:24:44;24.73;;;12.88;;
75218;SDS011;63801;49.414;19.474;2024-03-22T10:26:44;28.65;;;14.70;;
75218;SDS011;63801;49.414;19.474;2024-03-22T10:28:45;25.98;;;13.60;;
75218;SDS011;63801;49.414;19.474;2024-03-22T10:30:47;29.08;;;16.27;;
75218;SDS011;63801;49.414;19.474;2024-03-22T10:34:49;28.55;;;15.77;;
75218;SDS011;63801;49.414;19.474;2024-03-22T10:36:50;27.58;;;15.55;;
75218;SDS011;63801;49.414;19.474;2024-03-22T10:38:51;26.00;;;14.55;;
75218;SDS011;63801;49.414;19.474;2024-03-22T10:40:54;26.38;;;14.02;;
75218;SDS011;63801;49.414;19.474;2024-03-22T10:42:57;24.83;;;13.35;;
75218;SDS011;63801;49.414;19.474;2024-03-22T10:44:57;29.45;;;15.88;;
75218;SDS011;63801;49.414;19.474;2024-03-22T10:46:58;27.08;;;15.30;;
75218;SDS011;63801;49.414;19.474;2024-03-22T10:49:02;24.38;;;13.68;;
75218;SDS011;63801;49.414;19.474;2024-03-22T10:51:05;28.05;;;14.82;;
75218;SDS011;63801;49.414;19.474;2024-03-22T10:53:07;31.13;;;16.80;;
75218;SDS011;63801;49.414;19.474;2024-03-22T10:55:13;31.90;;;16.83;;
75218;SDS011;63801;49.414;19.474;2024-03-22T10:57:24;31.58;;;15.07;;
75218;SDS011;63801;49.414;19.474;2024-03-22T10:59:26;24.10;;;14.10;;
75218;SDS011;63801;49.414;19.474;2024-03-22T11:01:27;25.00;;;13.48;;
75218;SDS011;63801;49.414;19.474;2024-03-22T11:03:35;22.77;;;11.85;;
75218;SDS011;63801;49.414;19.474;2024-03-22T11:05:44;20.77;;;11.70;;
75218;SDS011;63801;49.414;19.474;2024-03-22T11:07:45;21.85;;;12.10;;
75218;SDS011;63801;49.414;19.474;2024-03-22T11:09:51;23.95;;;13.55;;
75218;SDS011;63801;49.414;19.474;2024-03-22T11:11:53;22.52;;;12.23;;
75218;SDS011;63801;49.414;19.474;2024-03-22T11:13:54;19.33;;;12.15;;
75218;SDS011;63801;49.414;19.474;2024-03-22T11:15:56;22.02;;;12.10;;
75218;SDS011;63801;49.414;19.474;2024-03-22T11:17:56;21.13;;;12.35;;
75218;SDS011;63801;49.414;19.474;2024-03-22T11:19:57;19.55;;;11.73;;
75218;SDS011;63801;49.414;19.474;2024-03-22T11:21:58;21.98;;;13.05;;
75218;SDS011;63801;49.414;19.474;2024-03-22T11:24:00;24.58;;;12.43;;
75218;SDS011;63801;49.414;19.474;2024-03-22T11:26:01;21.70;;;12.13;;
75218;SDS011;63801;49.414;19.474;2024-03-22T11:28:01;21.63;;;11.55;;
75218;SDS011;63801;49.414;19.474;2024-03-22T11:30:02;25.90;;;13.98;;
75218;SDS011;63801;49.414;19.474;2024-03-22T11:32:03;23.50;;;13.95;;
75218;SDS011;63801;49.414;19.474;2024-03-22T11:34:03;23.10;;;13.90;;
75218;SDS011;63801;49.414;19.474;2024-03-22T11:36:04;25.67;;;13.32;;
75218;SDS011;63801;49.414;19.474;2024-03-22T11:38:04;21.25;;;12.35;;
75218;SDS011;63801;49.414;19.474;2024-03-22T11:40:05;20.55;;;11.90;;